Time;durP1;ratioP1;P1;durP2;ratioP2;P2;SDS_P1;SDS_P2;PMS_P1;PMS_P2;Temp;Humidity;BMP_temperature;BMP_pressure;BME280_temperature;BME280_humidity;BME280_pressure;Samples;Min_cycle;Max_cycle;Signal;HPM_P1;HPM_P2
2022/12/23 00:00:17;;;;;;;8.07;4.77;;;10.10;99.90;;;;;;4970203;28;20169;-66
2022/12/23 00:02:43;;;;;;;5.57;5.03;;;10.10;99.90;;;;;;4965631;28;20204;-66
2022/12/23 00:05:09;;;;;;;4.77;4.47;;;10.20;99.90;;;;;;4989995;28;20180;-65
2022/12/23 00:07:35;;;;;;;5.37;4.90;;;10.20;99.90;;;;;;4978288;28;20189;-65
2022/12/23 00:10:01;;;;;;;5.50;5.10;;;10.20;99.90;;;;;;4970101;28;20209;-65
2022/12/23 00:15:11;;;;;;;5.17;4.77;;;10.20;99.90;;;;;;4989899;28;20649;-65
2022/12/23 00:17:41;;;;;;;5.20;4.80;;;10.20;99.90;;;;;;4970915;28;20181;-65
2022/12/23 00:20:07;;;;;;;5.87;5.10;;;10.20;99.90;;;;;;4970040;28;20184;-65
2022/12/23 00:25:17;;;;;;;5.07;4.80;;;10.30;99.90;;;;;;4989915;28;20183;-65
2022/12/23 00:28:00;;;;;;;6.70;5.10;;;10.30;99.90;;;;;;4970897;28;20185;-66
2022/12/23 00:30:26;;;;;;;5.93;5.40;;;10.30;99.90;;;;;;4969798;28;20213;-66
2022/12/23 00:32:52;;;;;;;5.90;4.93;;;10.30;99.90;;;;;;4970299;28;20468;-65
2022/12/23 00:35:17;;;;;;;5.50;5.10;;;10.30;99.90;;;;;;4979131;28;20183;-65
2022/12/23 00:37:43;;;;;;;6.67;5.10;;;10.20;99.90;;;;;;4989465;28;20255;-65
2022/12/23 00:42:57;;;;;;;5.97;5.33;;;10.30;99.90;;;;;;4970265;28;20212;-65
2022/12/23 00:45:23;;;;;;;6.03;5.57;;;10.30;99.90;;;;;;4977614;28;20184;-66
2022/12/23 00:50:44;;;;;;;5.30;4.80;;;10.30;99.90;;;;;;4940900;28;20695;-65
2022/12/23 00:53:09;;;;;;;4.90;4.60;;;10.30;99.90;;;;;;4970052;28;20197;-65
2022/12/23 00:55:35;;;;;;;5.03;4.80;;;10.40;99.90;;;;;;4978863;28;20176;-65
2022/12/23 00:58:00;;;;;;;5.60;4.73;;;10.40;99.90;;;;;;4989152;28;20567;-65
2022/12/23 01:06:09;;;;;;;5.63;5.33;;;10.50;99.90;;;;;;4982977;28;20244;-66
2022/12/23 01:08:35;;;;;;;5.20;4.80;;;10.50;99.90;;;;;;4989087;28;20181;-66
2022/12/23 01:11:05;;;;;;;4.87;4.57;;;10.50;99.90;;;;;;4976762;28;20210;-66
2022/12/23 01:13:31;;;;;;;4.80;4.60;;;10.50;99.90;;;;;;4969948;28;20570;-65
2022/12/23 01:16:09;;;;;;;5.53;5.00;;;10.50;99.90;;;;;;4980177;28;20184;-66
2022/12/23 01:18:36;;;;;;;6.43;5.20;;;10.50;99.90;;;;;;4988978;28;20252;-66
2022/12/23 01:21:04;;;;;;;5.40;5.10;;;10.50;99.90;;;;;;4977649;28;20186;-66
2022/12/23 01:23:30;;;;;;;5.40;5.00;;;10.50;99.90;;;;;;4969373;28;20197;-65
2022/12/23 01:26:02;;;;;;;5.17;4.87;;;10.50;99.90;;;;;;4963477;28;20238;-65
2022/12/23 01:28:29;;;;;;;5.17;4.87;;;10.40;99.90;;;;;;4971077;28;20182;-65
2022/12/23 01:30:55;;;;;;;5.67;5.37;;;10.40;99.90;;;;;;4972366;28;20209;-65
2022/12/23 01:33:21;;;;;;;5.80;5.07;;;10.40;99.90;;;;;;4973146;28;20292;-65
2022/12/23 01:35:47;;;;;;;5.47;5.07;;;10.40;99.90;;;;;;4972681;28;20321;-65
2022/12/23 01:38:12;;;;;;;5.50;5.20;;;10.40;99.90;;;;;;4974233;28;20255;-65
2022/12/23 01:40:44;;;;;;;6.07;5.57;;;10.40;99.90;;;;;;4991651;28;20674;-66
2022/12/23 01:43:15;;;;;;;5.50;4.97;;;10.40;99.90;;;;;;4990933;28;20193;-65
2022/12/23 01:45:41;;;;;;;4.60;4.40;;;10.40;99.90;;;;;;4972462;28;20646;-65
2022/12/23 01:48:21;;;;;;;5.70;5.40;;;10.40;99.90;;;;;;4972433;28;20181;-65
2022/12/23 01:50:58;;;;;;;9.23;5.50;;;10.40;99.90;;;;;;4952765;29;20267;-66
2022/12/23 01:53:39;;;;;;;6.43;5.83;;;10.50;99.90;;;;;;4956196;28;20193;-65
2022/12/23 01:56:10;;;;;;;5.87;5.50;;;10.50;99.90;;;;;;4971755;28;20205;-65
2022/12/23 01:58:42;;;;;;;6.67;5.50;;;10.50;99.90;;;;;;4974787;28;20892;-65
2022/12/23 02:03:57;;;;;;;5.67;5.33;;;10.40;99.90;;;;;;4994375;28;20220;-66
2022/12/23 02:09:18;;;;;;;5.40;5.10;;;10.40;99.90;;;;;;4996716;28;20271;-65
2022/12/23 02:12:14;;;;;;;6.97;6.27;;;10.30;99.90;;;;;;4970218;28;20244;-65
2022/12/23 02:17:58;;;;;;;7.13;6.60;;;10.30;99.90;;;;;;4981932;28;20648;-65
2022/12/23 02:20:52;;;;;;;8.37;6.10;;;10.30;99.90;;;;;;4994233;28;20192;-65
2022/12/23 02:23:26;;;;;;;6.33;5.93;;;10.30;99.90;;;;;;4976554;28;20203;-65
2022/12/23 02:26:10;;;;;;;7.23;6.40;;;10.30;99.90;;;;;;4972077;28;20170;-64
2022/12/23 02:29:10;;;;;;;7.30;6.73;;;10.30;99.90;;;;;;4988148;28;20184;-65
2022/12/23 02:31:58;;;;;;;8.03;6.50;;;10.30;99.90;;;;;;4990934;28;20223;-66
2022/12/23 02:34:48;;;;;;;10.97;7.27;;;10.30;99.90;;;;;;4953182;29;20218;-65
2022/12/23 02:37:46;;;;;;;8.13;7.47;;;10.30;99.90;;;;;;4961073;28;20173;-65
2022/12/23 02:40:43;;;;;;;9.63;7.67;;;10.30;99.90;;;;;;5008591;28;20267;-65
2022/12/23 02:43:21;;;;;;;7.17;6.37;;;10.30;99.90;;;;;;4983515;28;20200;-65
2022/12/23 02:45:56;;;;;;;7.93;6.93;;;10.30;99.90;;;;;;4971692;28;20219;-64
2022/12/23 02:48:31;;;;;;;8.73;7.57;;;10.30;99.90;;;;;;4971688;28;20564;-65
2022/12/23 02:50:59;;;;;;;10.00;6.60;;;10.30;99.90;;;;;;4971546;28;20282;-64
2022/12/23 02:53:41;;;;;;;7.73;6.93;;;10.30;99.90;;;;;;4982609;28;20201;-64
2022/12/23 02:56:09;;;;;;;7.07;6.57;;;10.30;99.90;;;;;;4973011;28;20187;-65
2022/12/23 02:58:42;;;;;;;8.27;6.70;;;10.30;99.90;;;;;;4978747;28;20182;-65
2022/12/23 03:01:10;;;;;;;8.40;6.57;;;10.30;99.90;;;;;;4971262;28;20173;-65
2022/12/23 03:03:36;;;;;;;6.93;6.23;;;10.30;99.90;;;;;;4982335;28;20197;-65
2022/12/23 03:06:14;;;;;;;6.80;6.20;;;10.30;99.90;;;;;;4990941;28;20204;-64
2022/12/23 03:08:42;;;;;;;7.50;5.83;;;10.30;99.90;;;;;;4979107;28;20187;-65
2022/12/23 03:11:14;;;;;;;6.53;6.03;;;10.30;99.90;;;;;;4970946;28;20213;-65
2022/12/23 03:13:54;;;;;;;6.83;6.37;;;10.40;99.90;;;;;;4951875;28;20248;-65
2022/12/23 03:16:20;;;;;;;8.83;6.67;;;10.30;99.90;;;;;;4971829;28;20255;-65
2022/12/23 03:19:00;;;;;;;6.67;6.20;;;10.40;99.90;;;;;;4990481;28;20252;-66
2022/12/23 03:21:54;;;;;;;7.73;6.67;;;10.40;99.90;;;;;;4983536;28;20176;-65
2022/12/23 03:24:36;;;;;;;12.70;6.23;;;10.30;99.90;;;;;;4992776;28;20201;-65
2022/12/23 03:27:29;;;;;;;7.33;6.50;;;10.30;99.90;;;;;;4976136;28;20615;-65
2022/12/23 03:30:15;;;;;;;8.00;6.70;;;10.30;99.90;;;;;;4970796;28;20674;-66
2022/12/23 03:33:01;;;;;;;7.57;6.80;;;10.20;99.90;;;;;;4989258;28;20316;-66
2022/12/23 03:35:35;;;;;;;6.77;6.17;;;10.20;99.90;;;;;;4972449;28;20176;-66
2022/12/23 03:38:03;;;;;;;6.20;5.60;;;10.20;99.90;;;;;;4970937;28;20647;-67
2022/12/23 03:40:37;;;;;;;6.90;6.13;;;10.20;99.90;;;;;;4970450;28;20177;-66
2022/12/23 03:43:29;;;;;;;13.93;6.33;;;10.20;99.90;;;;;;4971198;28;20292;-66
2022/12/23 03:46:04;;;;;;;8.37;7.07;;;10.20;99.90;;;;;;4977239;28;20210;-66
2022/12/23 03:48:38;;;;;;;9.83;6.17;;;10.10;99.90;;;;;;4989623;28;20175;-66
2022/12/23 03:51:27;;;;;;;7.00;6.40;;;10.10;99.90;;;;;;4986796;28;20197;-65
2022/12/23 03:54:02;;;;;;;7.43;6.57;;;10.10;99.90;;;;;;4970690;28;20181;-66
2022/12/23 03:56:33;;;;;;;6.20;5.53;;;10.10;99.90;;;;;;4975284;28;20165;-66
2022/12/23 03:59:24;;;;;;;6.90;6.30;;;10.10;99.90;;;;;;4972673;28;20177;-65
2022/12/23 04:02:32;;;;;;;6.73;6.23;;;10.10;99.90;;;;;;4981909;28;20628;-65
2022/12/23 04:05:10;;;;;;;11.10;6.30;;;10.10;99.90;;;;;;4989346;28;20236;-66
2022/12/23 04:08:02;;;;;;;7.67;5.50;;;10.00;99.90;;;;;;4983526;28;20188;-65
2022/12/23 04:10:29;;;;;;;6.67;6.20;;;10.00;99.90;;;;;;4975404;28;20209;-65
2022/12/23 04:12:55;;;;;;;5.57;5.27;;;10.00;99.90;;;;;;4979473;28;20212;-65
2022/12/23 04:15:24;;;;;;;6.30;5.40;;;10.00;99.90;;;;;;4989410;28;20654;-65
2022/12/23 04:17:51;;;;;;;6.47;5.70;;;10.00;99.90;;;;;;4981363;28;20177;-65
2022/12/23 04:20:17;;;;;;;5.70;5.40;;;10.00;99.90;;;;;;4969928;28;20509;-65
2022/12/23 04:22:43;;;;;;;5.47;4.83;;;10.00;99.90;;;;;;4976280;28;20208;-65
2022/12/23 04:25:10;;;;;;;10.10;5.43;;;10.00;99.90;;;;;;4989825;28;20250;-66
2022/12/23 04:27:36;;;;;;;5.83;5.43;;;10.00;99.90;;;;;;4984391;28;20213;-65
2022/12/23 04:30:02;;;;;;;6.20;5.90;;;10.00;99.90;;;;;;4969844;28;20718;-65
2022/12/23 04:32:28;;;;;;;6.77;4.87;;;10.00;99.90;;;;;;4972722;28;20240;-65
2022/12/23 04:34:53;;;;;;;5.33;4.83;;;10.00;99.90;;;;;;4989474;28;20218;-65
2022/12/23 04:37:19;;;;;;;4.90;4.70;;;10.00;99.90;;;;;;4984682;28;20178;-65
2022/12/23 04:39:44;;;;;;;5.90;5.50;;;10.00;99.90;;;;;;4969669;28;20588;-64
2022/12/23 04:42:10;;;;;;;6.33;5.77;;;10.00;99.90;;;;;;4972459;28;20586;-65
2022/12/23 04:44:35;;;;;;;4.77;4.50;;;10.00;99.90;;;;;;4989280;28;20256;-64
2022/12/23 04:47:01;;;;;;;4.60;4.40;;;10.00;99.90;;;;;;4970973;28;20591;-64
2022/12/23 04:49:26;;;;;;;5.70;5.30;;;10.00;99.90;;;;;;4969578;28;20241;-64
2022/12/23 04:51:52;;;;;;;5.50;5.10;;;10.00;99.90;;;;;;4969771;28;20701;-64
2022/12/23 04:54:18;;;;;;;5.63;5.13;;;10.10;99.90;;;;;;4988252;28;20223;-64
2022/12/23 04:56:43;;;;;;;4.87;4.47;;;10.10;99.90;;;;;;4989173;28;20589;-64
2022/12/23 04:59:09;;;;;;;7.83;5.23;;;10.10;99.90;;;;;;4972157;28;20248;-64
2022/12/23 05:01:35;;;;;;;5.73;5.20;;;10.10;99.90;;;;;;4972465;28;20223;-64
2022/12/23 05:04:01;;;;;;;4.87;4.67;;;10.10;99.90;;;;;;4974291;28;20181;-64
2022/12/23 05:06:26;;;;;;;5.13;4.80;;;10.10;99.90;;;;;;4955744;28;20173;-64
2022/12/23 05:08:52;;;;;;;5.90;5.00;;;10.00;99.90;;;;;;4985864;28;20264;-64
2022/12/23 05:11:17;;;;;;;5.33;4.90;;;10.00;99.90;;;;;;4992301;28;20204;-64
2022/12/23 05:13:43;;;;;;;5.43;5.00;;;10.00;99.90;;;;;;4980979;28;20198;-64
2022/12/23 05:16:09;;;;;;;5.27;4.90;;;9.90;99.90;;;;;;4973112;28;20203;-64
2022/12/23 05:18:34;;;;;;;5.23;4.93;;;9.90;99.90;;;;;;4981902;28;20525;-64
2022/12/23 05:21:00;;;;;;;5.37;5.07;;;9.90;99.90;;;;;;4992063;28;20677;-64
2022/12/23 05:23:25;;;;;;;8.20;5.03;;;9.90;99.90;;;;;;4984412;28;20201;-64
2022/12/23 05:25:52;;;;;;;5.03;4.73;;;9.90;99.90;;;;;;4972921;28;20182;-65
2022/12/23 05:28:19;;;;;;;5.40;5.00;;;10.00;99.90;;;;;;4978314;28;20831;-64
2022/12/23 05:30:44;;;;;;;5.60;5.03;;;10.00;99.90;;;;;;4988964;28;20598;-65
2022/12/23 05:33:10;;;;;;;9.03;5.60;;;10.00;99.90;;;;;;4972628;28;20217;-64
2022/12/23 05:35:36;;;;;;;5.70;5.30;;;10.10;99.90;;;;;;4973355;28;20170;-63
2022/12/23 05:38:02;;;;;;;5.63;5.13;;;10.10;99.90;;;;;;4992219;28;20176;-64
2022/12/23 05:40:28;;;;;;;6.90;6.20;;;10.20;99.90;;;;;;4991653;28;20199;-64
2022/12/23 05:42:54;;;;;;;7.07;5.53;;;10.20;99.90;;;;;;4973084;28;20205;-64
2022/12/23 05:45:19;;;;;;;8.10;5.47;;;10.20;99.90;;;;;;4972714;28;20177;-65
2022/12/23 05:47:45;;;;;;;6.40;5.90;;;10.30;99.90;;;;;;4989174;28;20592;-64
2022/12/23 05:50:11;;;;;;;10.60;5.53;;;10.30;99.90;;;;;;4991543;28;20677;-64
2022/12/23 05:52:36;;;;;;;6.77;6.23;;;10.30;99.90;;;;;;4976505;28;20665;-65
2022/12/23 05:55:02;;;;;;;9.70;5.23;;;10.30;99.90;;;;;;4972510;28;20252;-64
2022/12/23 05:57:29;;;;;;;6.03;5.50;;;10.30;99.90;;;;;;4973589;28;20260;-64
2022/12/23 05:59:54;;;;;;;5.73;5.33;;;10.30;99.90;;;;;;4972287;28;20169;-64
2022/12/23 06:02:20;;;;;;;9.03;5.50;;;10.30;99.90;;;;;;4988037;28;20246;-64
2022/12/23 06:04:46;;;;;;;5.30;5.00;;;10.40;99.90;;;;;;4991557;28;20204;-64
2022/12/23 06:07:12;;;;;;;5.13;4.83;;;10.40;99.90;;;;;;4977135;28;20666;-64
2022/12/23 06:09:37;;;;;;;5.20;4.77;;;10.50;99.90;;;;;;4971729;28;20209;-64
2022/12/23 06:12:03;;;;;;;6.97;6.10;;;10.50;99.90;;;;;;4989917;28;20201;-64
2022/12/23 06:14:29;;;;;;;8.07;6.80;;;10.50;99.90;;;;;;4991414;28;20673;-64
2022/12/23 06:16:54;;;;;;;7.07;6.53;;;10.50;99.90;;;;;;4974732;28;20264;-65
2022/12/23 06:19:20;;;;;;;6.27;5.20;;;10.50;99.90;;;;;;4972039;28;20608;-64
2022/12/23 06:21:45;;;;;;;7.63;5.50;;;10.50;99.90;;;;;;4986299;28;20255;-63
2022/12/23 06:24:11;;;;;;;5.60;5.20;;;10.50;99.90;;;;;;4991503;28;20173;-64
2022/12/23 06:26:37;;;;;;;5.87;5.47;;;10.50;99.90;;;;;;4978101;28;20479;-64
2022/12/23 06:29:03;;;;;;;10.17;9.17;;;10.50;99.90;;;;;;4972120;28;20182;-64
2022/12/23 06:31:29;;;;;;;19.70;12.73;;;10.50;99.90;;;;;;4982261;28;20622;-64
2022/12/23 06:33:55;;;;;;;50.70;22.13;;;10.50;99.90;;;;;;4986839;28;20201;-64
2022/12/23 06:36:21;;;;;;;12.50;9.83;;;10.50;99.90;;;;;;4971751;28;20425;-64
2022/12/23 06:38:46;;;;;;;47.17;23.23;;;10.50;99.90;;;;;;4974008;28;20261;-64
2022/12/23 06:41:12;;;;;;;14.00;6.60;;;10.50;99.90;;;;;;4990926;28;20204;-64
2022/12/23 06:43:38;;;;;;;7.70;5.90;;;10.50;99.90;;;;;;4990036;28;20213;-64
2022/12/23 06:46:04;;;;;;;5.60;4.80;;;10.50;99.90;;;;;;4975135;28;20190;-65
2022/12/23 06:48:29;;;;;;;7.57;5.90;;;10.50;99.90;;;;;;4971556;28;20252;-64
2022/12/23 06:50:55;;;;;;;5.50;5.20;;;10.50;99.90;;;;;;4971187;28;20205;-65
2022/12/23 06:53:20;;;;;;;8.70;6.07;;;10.50;99.90;;;;;;4971567;28;20657;-64
2022/12/23 06:55:46;;;;;;;6.43;5.83;;;10.50;99.90;;;;;;4971236;28;20230;-64
2022/12/23 06:58:11;;;;;;;10.20;5.80;;;10.50;99.90;;;;;;4971475;28;20650;-64
2022/12/23 07:00:37;;;;;;;13.73;5.40;;;10.50;99.90;;;;;;4988309;28;20559;-65
2022/12/23 07:03:03;;;;;;;6.40;5.80;;;10.50;99.90;;;;;;4973220;28;20228;-64
2022/12/23 07:05:28;;;;;;;6.83;6.20;;;10.50;99.90;;;;;;4972865;28;20181;-64
2022/12/23 07:07:54;;;;;;;5.67;5.27;;;10.50;99.90;;;;;;4971196;28;20181;-65
2022/12/23 07:10:19;;;;;;;5.60;5.30;;;10.50;99.90;;;;;;4970904;28;20288;-65
2022/12/23 07:12:45;;;;;;;6.37;5.93;;;10.50;99.90;;;;;;4980370;28;20215;-64
2022/12/23 07:15:11;;;;;;;8.67;6.00;;;10.40;99.90;;;;;;4990732;28;20185;-64
2022/12/23 07:17:36;;;;;;;7.47;6.43;;;10.40;99.90;;;;;;4982392;28;20186;-65
2022/12/23 07:20:02;;;;;;;6.43;6.00;;;10.40;99.90;;;;;;4969883;28;20185;-65
2022/12/23 07:22:28;;;;;;;6.70;6.30;;;10.40;99.90;;;;;;4975821;28;20279;-64
2022/12/23 07:24:53;;;;;;;5.93;5.63;;;10.40;99.90;;;;;;4972908;28;20189;-65
2022/12/23 07:27:19;;;;;;;6.73;6.23;;;10.40;99.90;;;;;;4985729;28;20547;-63
2022/12/23 07:29:44;;;;;;;6.27;5.70;;;10.40;99.90;;;;;;4970303;28;20211;-65
2022/12/23 07:32:10;;;;;;;10.93;6.00;;;10.50;99.90;;;;;;4973242;28;20689;-65
2022/12/23 07:34:36;;;;;;;6.03;5.63;;;10.50;99.90;;;;;;4972537;28;20181;-64
2022/12/23 07:37:01;;;;;;;7.27;6.67;;;10.50;99.90;;;;;;4989881;28;20256;-65
2022/12/23 07:39:27;;;;;;;5.57;5.17;;;10.40;99.90;;;;;;4989883;28;20256;-65
2022/12/23 07:41:52;;;;;;;8.23;6.43;;;10.50;99.90;;;;;;4990045;28;20305;-65
2022/12/23 07:44:18;;;;;;;6.83;6.17;;;10.40;99.90;;;;;;4970918;28;20624;-65
2022/12/23 07:46:43;;;;;;;6.20;5.70;;;10.50;99.90;;;;;;4976472;28;20192;-65
2022/12/23 07:49:09;;;;;;;5.90;5.40;;;10.40;99.90;;;;;;4989684;28;20200;-64
2022/12/23 07:51:35;;;;;;;6.53;6.03;;;10.40;99.90;;;;;;4985894;28;20670;-65
2022/12/23 07:54:00;;;;;;;8.70;6.47;;;10.40;99.90;;;;;;4970548;28;20178;-65
2022/12/23 07:56:26;;;;;;;6.97;5.97;;;10.50;99.90;;;;;;4982415;28;20234;-65
2022/12/23 07:58:52;;;;;;;7.60;7.00;;;10.50;99.90;;;;;;4989832;28;20557;-64
2022/12/23 08:01:19;;;;;;;8.97;6.50;;;10.50;99.90;;;;;;4961053;28;20189;-64
2022/12/23 08:03:45;;;;;;;7.63;7.07;;;10.40;99.90;;;;;;4973278;28;20209;-65
2022/12/23 08:06:13;;;;;;;10.10;7.07;;;10.40;99.90;;;;;;4954348;28;20231;-67
2022/12/23 08:08:39;;;;;;;6.67;6.00;;;10.50;99.90;;;;;;4970357;28;20197;-64
2022/12/23 08:11:07;;;;;;;7.20;6.50;;;10.40;99.90;;;;;;4987859;28;20208;-65
2022/12/23 08:13:35;;;;;;;7.93;7.10;;;10.40;99.90;;;;;;4989563;28;20220;-65
2022/12/23 08:16:02;;;;;;;6.90;5.97;;;10.40;99.90;;;;;;4988023;28;20578;-65
2022/12/23 08:18:30;;;;;;;7.73;5.93;;;10.50;99.90;;;;;;4972102;28;20189;-65
2022/12/23 08:20:58;;;;;;;7.63;6.87;;;10.50;99.90;;;;;;4973240;28;20635;-65
2022/12/23 08:23:25;;;;;;;7.07;6.50;;;10.50;99.90;;;;;;4970067;28;20662;-65
2022/12/23 08:26:11;;;;;;;8.47;6.50;;;10.50;99.90;;;;;;4953807;28;20228;-65
2022/12/23 08:28:38;;;;;;;7.20;6.67;;;10.40;99.90;;;;;;4969876;28;20280;-65
2022/12/23 08:31:06;;;;;;;7.40;6.57;;;10.40;99.90;;;;;;4968079;28;20278;-65
2022/12/23 08:33:32;;;;;;;11.70;6.87;;;10.50;99.90;;;;;;4988894;22;20578;-66
2022/12/23 08:35:58;;;;;;;7.07;6.37;;;10.50;99.90;;;;;;4950761;28;20214;-66
2022/12/23 08:38:24;;;;;;;8.40;6.60;;;10.50;99.90;;;;;;4950303;29;20213;-66
2022/12/23 08:40:49;;;;;;;7.23;6.40;;;10.50;99.90;;;;;;4950511;29;20713;-66
2022/12/23 08:43:15;;;;;;;10.77;6.20;;;10.50;99.90;;;;;;4950386;28;20674;-66
2022/12/23 08:45:40;;;;;;;6.93;6.30;;;10.40;99.90;;;;;;4951391;28;20210;-65
2022/12/23 08:48:06;;;;;;;10.23;6.83;;;10.40;99.90;;;;;;4958787;28;20213;-65
2022/12/23 08:50:42;;;;;;;6.97;6.47;;;10.40;99.90;;;;;;4952048;29;20232;-66
2022/12/23 08:53:08;;;;;;;13.57;6.83;;;10.50;99.90;;;;;;4950574;29;20198;-66
2022/12/23 08:55:42;;;;;;;7.03;6.53;;;10.40;99.90;;;;;;4950334;28;20178;-66
2022/12/23 08:58:08;;;;;;;7.27;6.60;;;10.50;99.90;;;;;;4951694;28;20269;-65
2022/12/23 09:00:34;;;;;;;8.77;7.93;;;10.50;99.90;;;;;;4959964;29;20202;-66
2022/12/23 09:03:00;;;;;;;7.43;6.70;;;10.50;99.90;;;;;;4953654;28;20206;-66
2022/12/23 09:05:26;;;;;;;7.60;6.90;;;10.60;99.90;;;;;;4990390;28;20187;-65
2022/12/23 09:07:52;;;;;;;8.30;7.00;;;10.60;99.90;;;;;;5018482;28;20247;-66
2022/12/23 09:10:18;;;;;;;7.13;6.00;;;10.60;99.90;;;;;;4950197;28;20206;-65
2022/12/23 09:12:43;;;;;;;6.60;6.10;;;10.60;99.90;;;;;;4950128;28;20277;-67
2022/12/23 09:15:09;;;;;;;7.57;6.83;;;10.60;99.90;;;;;;4952802;28;20209;-65
2022/12/23 09:17:35;;;;;;;7.73;6.93;;;10.60;99.90;;;;;;4958035;28;20206;-65
2022/12/23 09:20:00;;;;;;;10.60;7.07;;;10.60;99.90;;;;;;4958237;28;20656;-66
2022/12/23 09:22:26;;;;;;;6.43;6.00;;;10.70;99.90;;;;;;4934040;28;20179;-66
2022/12/23 09:24:51;;;;;;;6.83;5.93;;;10.70;99.90;;;;;;4931004;29;20187;-67
2022/12/23 09:27:17;;;;;;;7.27;6.53;;;10.70;99.90;;;;;;4949400;29;20644;-66
2022/12/23 09:29:43;;;;;;;7.60;6.90;;;10.70;99.90;;;;;;4949839;28;20264;-66
2022/12/23 09:32:08;;;;;;;7.53;6.93;;;10.70;99.90;;;;;;4949954;28;20189;-66
2022/12/23 09:34:34;;;;;;;6.73;6.23;;;10.70;99.90;;;;;;4949828;28;20256;-66
2022/12/23 09:37:01;;;;;;;6.10;5.60;;;10.60;99.90;;;;;;4959839;28;20189;-66
2022/12/23 09:39:26;;;;;;;7.23;6.43;;;10.50;99.90;;;;;;4938061;29;20178;-66
2022/12/23 09:42:21;;;;;;;6.23;5.83;;;10.50;99.90;;;;;;4948117;28;20198;-67
2022/12/23 09:45:15;;;;;;;7.17;6.63;;;10.50;99.90;;;;;;4949680;28;20187;-66
2022/12/23 09:47:42;;;;;;;7.73;6.93;;;10.50;99.90;;;;;;4952592;28;20648;-66
2022/12/23 09:50:24;;;;;;;8.93;6.03;;;10.40;99.90;;;;;;4953301;29;20233;-67
2022/12/23 09:53:30;;;;;;;6.77;6.13;;;10.40;99.90;;;;;;4952902;29;20209;-67
2022/12/23 09:56:14;;;;;;;6.23;5.60;;;10.40;99.90;;;;;;4930905;29;20297;-67
2022/12/23 09:58:45;;;;;;;5.63;5.33;;;10.30;99.90;;;;;;4933740;29;20199;-67
2022/12/23 10:01:47;;;;;;;6.27;5.77;;;10.30;99.90;;;;;;4938924;28;20243;-65
2022/12/23 10:04:22;;;;;;;5.37;5.07;;;10.30;99.90;;;;;;4952925;28;20235;-66
2022/12/23 10:07:05;;;;;;;6.17;5.60;;;10.30;99.90;;;;;;4952657;28;20645;-66
2022/12/23 10:09:35;;;;;;;6.47;5.93;;;10.30;99.90;;;;;;4952384;29;20182;-65
2022/12/23 10:12:05;;;;;;;8.37;6.73;;;10.30;99.90;;;;;;4953017;28;20194;-65
2022/12/23 10:14:33;;;;;;;6.00;5.57;;;10.30;99.90;;;;;;4952540;28;20240;-66
2022/12/23 10:17:13;;;;;;;6.67;6.07;;;10.40;99.90;;;;;;4952667;28;20175;-66
2022/12/23 10:19:47;;;;;;;5.90;5.50;;;10.40;99.90;;;;;;4952577;29;20661;-66
2022/12/23 10:22:31;;;;;;;5.97;5.57;;;10.40;99.90;;;;;;4952647;28;20246;-66
2022/12/23 10:24:59;;;;;;;6.60;6.20;;;10.40;99.90;;;;;;4952473;28;20189;-67
2022/12/23 10:27:51;;;;;;;7.50;5.80;;;10.50;99.90;;;;;;4951925;28;20197;-66
2022/12/23 10:30:21;;;;;;;6.70;6.20;;;10.60;99.90;;;;;;4950600;28;20210;-66
2022/12/23 10:33:17;;;;;;;6.70;6.10;;;10.70;99.90;;;;;;4952972;28;20202;-66
2022/12/23 10:35:59;;;;;;;7.60;6.60;;;10.70;99.90;;;;;;4952622;29;20224;-65
2022/12/23 10:38:28;;;;;;;9.83;7.60;;;10.80;99.90;;;;;;4953049;28;20550;-65
2022/12/23 10:41:01;;;;;;;8.33;7.33;;;10.80;99.90;;;;;;4960503;28;20190;-66
2022/12/23 10:44:04;;;;;;;10.13;8.03;;;10.80;99.90;;;;;;4962405;28;20202;-66
2022/12/23 10:46:29;;;;;;;7.87;7.07;;;10.80;99.90;;;;;;4960472;29;20212;-66
2022/12/23 10:49:26;;;;;;;9.03;6.77;;;10.80;99.90;;;;;;4961455;28;20175;-66
2022/12/23 10:51:58;;;;;;;6.70;6.20;;;10.80;99.90;;;;;;4959790;29;20201;-66
2022/12/23 10:54:28;;;;;;;13.07;5.90;;;10.80;99.90;;;;;;4960537;28;20213;-65
2022/12/23 10:56:54;;;;;;;5.93;5.43;;;10.80;99.90;;;;;;4962339;28;20269;-66
2022/12/23 10:59:26;;;;;;;8.67;5.97;;;10.70;99.90;;;;;;4961561;28;20209;-66
2022/12/23 11:02:15;;;;;;;7.37;6.17;;;10.60;99.90;;;;;;4963905;28;20205;-66
2022/12/23 11:04:46;;;;;;;5.80;5.30;;;10.60;99.90;;;;;;4943148;29;20175;-66
2022/12/23 11:07:15;;;;;;;6.40;5.90;;;10.50;99.90;;;;;;4945535;29;20269;-66
2022/12/23 11:09:49;;;;;;;7.17;5.93;;;10.40;99.90;;;;;;4960485;28;20214;-66
2022/12/23 11:12:15;;;;;;;6.97;6.07;;;10.40;99.90;;;;;;4961764;28;20191;-66
2022/12/23 11:14:56;;;;;;;6.60;6.10;;;10.40;99.90;;;;;;4960092;28;20502;-66
2022/12/23 11:17:28;;;;;;;6.50;6.10;;;10.30;99.90;;;;;;4943308;29;20167;-65
2022/12/23 11:20:15;;;;;;;6.67;6.17;;;10.40;99.90;;;;;;4944745;29;20171;-66
2022/12/23 11:22:50;;;;;;;8.10;7.30;;;10.40;99.90;;;;;;4961393;28;20194;-65
2022/12/23 11:25:29;;;;;;;6.03;5.50;;;10.40;99.90;;;;;;4963744;29;20201;-66
2022/12/23 11:28:12;;;;;;;6.50;6.07;;;10.40;99.90;;;;;;4962375;28;20186;-66
2022/12/23 11:30:49;;;;;;;7.47;6.50;;;10.40;99.90;;;;;;4962672;28;20293;-66
2022/12/23 11:33:34;;;;;;;7.13;6.47;;;10.40;99.90;;;;;;4961355;28;20285;-66
2022/12/23 11:36:04;;;;;;;6.53;6.10;;;10.30;99.90;;;;;;4958391;29;20261;-67
2022/12/23 11:38:30;;;;;;;6.83;6.27;;;10.30;99.90;;;;;;4951626;29;20177;-67
2022/12/23 11:40:57;;;;;;;8.50;6.27;;;10.20;99.90;;;;;;4951424;28;20597;-67
2022/12/23 11:43:24;;;;;;;8.07;5.70;;;10.20;99.90;;;;;;4951443;28;20590;-67
2022/12/23 11:46:42;;;;;;;5.37;4.97;;;10.20;99.90;;;;;;4951668;28;20196;-67
2022/12/23 11:49:20;;;;;;;6.00;5.50;;;10.10;99.90;;;;;;4929210;28;20195;-67
2022/12/23 11:51:58;;;;;;;6.13;5.63;;;10.10;99.90;;;;;;4951207;28;20605;-67
2022/12/23 11:54:24;;;;;;;8.30;6.10;;;10.10;99.90;;;;;;4950256;28;20230;-67
2022/12/23 11:56:51;;;;;;;7.07;6.43;;;10.00;99.90;;;;;;4949185;28;20271;-67
2022/12/23 11:59:39;;;;;;;8.90;8.00;;;10.10;99.90;;;;;;4951230;28;20261;-67
2022/12/23 12:02:18;;;;;;;8.83;6.77;;;10.10;99.90;;;;;;4951096;28;20680;-67
2022/12/23 12:04:59;;;;;;;7.50;6.77;;;10.10;99.90;;;;;;4951502;28;20643;-67
2022/12/23 12:07:26;;;;;;;11.60;6.90;;;10.10;99.90;;;;;;4951086;28;20200;-67
2022/12/23 12:09:55;;;;;;;6.67;5.97;;;10.10;99.90;;;;;;4960831;28;20267;-67
2022/12/23 12:12:21;;;;;;;9.47;6.17;;;10.10;99.90;;;;;;4951204;28;20206;-67
2022/12/23 12:14:57;;;;;;;7.83;5.60;;;10.10;99.90;;;;;;4950986;29;20224;-67
2022/12/23 12:17:47;;;;;;;6.40;6.10;;;10.00;99.90;;;;;;4951239;28;20642;-67
2022/12/23 12:20:30;;;;;;;9.83;6.57;;;10.00;99.90;;;;;;4951173;28;20182;-66
2022/12/23 12:23:07;;;;;;;7.17;6.67;;;9.90;99.90;;;;;;4951042;28;20693;-67
2022/12/23 12:25:54;;;;;;;7.33;5.90;;;9.90;99.90;;;;;;4950891;28;20231;-66
2022/12/23 12:28:31;;;;;;;7.63;6.93;;;9.90;99.90;;;;;;4951031;28;20256;-66
2022/12/23 12:31:04;;;;;;;7.13;6.37;;;9.90;99.90;;;;;;4950648;28;20292;-67
2022/12/23 12:33:34;;;;;;;6.90;6.43;;;9.90;99.90;;;;;;4952555;28;20206;-66
2022/12/23 12:36:27;;;;;;;6.47;5.60;;;9.80;99.90;;;;;;4953914;29;20670;-66
2022/12/23 12:38:55;;;;;;;6.73;6.03;;;9.80;99.90;;;;;;4955825;28;20185;-66
2022/12/23 12:41:28;;;;;;;6.93;5.80;;;9.80;99.90;;;;;;4966303;28;20252;-66
2022/12/23 12:44:24;;;;;;;6.90;6.20;;;9.70;99.90;;;;;;4975843;28;20197;-66
2022/12/23 12:46:57;;;;;;;6.80;6.27;;;9.70;99.90;;;;;;4938970;29;20179;-66
2022/12/23 12:49:38;;;;;;;7.10;6.50;;;9.60;99.90;;;;;;4940814;29;20553;-66
2022/12/23 12:52:22;;;;;;;6.40;6.00;;;9.60;99.90;;;;;;4959087;28;20269;-66
2022/12/23 12:54:55;;;;;;;10.03;6.63;;;9.60;99.90;;;;;;4959138;28;20178;-66
2022/12/23 12:57:22;;;;;;;6.67;6.07;;;9.70;99.90;;;;;;4959155;29;20236;-66
2022/12/23 12:59:52;;;;;;;6.03;5.63;;;9.70;99.90;;;;;;4958274;28;20813;-66
2022/12/23 13:02:32;;;;;;;6.43;5.87;;;9.70;99.90;;;;;;4958156;28;20248;-66
2022/12/23 13:05:20;;;;;;;5.20;4.90;;;9.70;99.90;;;;;;4958052;29;20227;-66
2022/12/23 13:08:06;;;;;;;7.57;5.90;;;9.70;99.90;;;;;;4950593;28;20301;-67
2022/12/23 13:10:54;;;;;;;5.73;5.43;;;9.70;99.90;;;;;;4950125;29;20195;-66
2022/12/23 13:13:37;;;;;;;5.70;5.27;;;9.70;99.90;;;;;;4961334;28;20215;-66
2022/12/23 13:16:05;;;;;;;5.10;4.80;;;9.70;99.90;;;;;;4959445;28;20650;-66
2022/12/23 13:18:40;;;;;;;5.83;5.43;;;9.70;99.90;;;;;;4950223;28;20545;-67
2022/12/23 13:21:12;;;;;;;7.30;6.17;;;9.70;99.90;;;;;;4950448;29;20185;-67
2022/12/23 13:24:16;;;;;;;6.03;5.73;;;9.70;99.90;;;;;;4953768;28;20190;-67
2022/12/23 13:26:58;;;;;;;6.57;6.17;;;9.70;99.90;;;;;;4950826;28;20708;-67
2022/12/23 13:29:45;;;;;;;6.70;6.20;;;9.60;99.90;;;;;;4954083;29;20190;-67
2022/12/23 13:32:35;;;;;;;8.10;6.87;;;9.60;99.90;;;;;;4953626;29;20608;-68
2022/12/23 13:35:29;;;;;;;6.83;6.20;;;9.60;99.90;;;;;;4953242;28;20522;-67
2022/12/23 13:38:21;;;;;;;6.80;6.20;;;9.60;99.90;;;;;;4953410;29;20582;-67